createdAt,value
2018-05-16T00:02:05.797Z,15.40
2018-05-16T00:04:33.411Z,15.30
2018-05-16T00:07:00.986Z,15.40
2018-05-16T00:09:28.589Z,15.30
2018-05-16T00:11:56.141Z,15.30
2018-05-16T00:14:23.815Z,15.30
2018-05-16T00:16:51.386Z,15.20
2018-05-16T00:19:18.953Z,15.20
2018-05-16T00:21:47.223Z,15.00
2018-05-16T00:24:14.773Z,15.00
2018-05-16T00:26:42.311Z,15.10
2018-05-16T00:29:09.905Z,15.20
2018-05-16T00:31:37.456Z,15.20
2018-05-16T00:34:04.995Z,14.90
2018-05-16T00:36:32.615Z,14.80
2018-05-16T00:39:00.167Z,14.80
2018-05-16T00:41:27.710Z,14.90
2018-05-16T00:43:55.225Z,14.80
2018-05-16T00:46:23.554Z,15.00
2018-05-16T00:48:51.109Z,15.00
2018-05-16T00:51:31.394Z,15.20
2018-05-16T00:53:58.976Z,15.20
2018-05-16T00:56:27.305Z,15.20
2018-05-16T00:58:54.883Z,15.20
2018-05-16T01:01:22.498Z,15.20
2018-05-16T01:03:50.067Z,15.20
2018-05-16T01:06:17.611Z,15.20
2018-05-16T01:08:45.206Z,15.30
2018-05-16T01:11:12.735Z,15.20
2018-05-16T01:13:40.285Z,15.20
2018-05-16T01:16:08.637Z,15.30
2018-05-16T01:18:36.299Z,15.30
2018-05-16T01:21:03.863Z,15.20
2018-05-16T01:23:31.435Z,15.20
2018-05-16T01:25:59.143Z,15.30
2018-05-16T01:28:26.763Z,15.30
2018-05-16T01:30:54.430Z,15.20
2018-05-16T01:33:22.792Z,15.10
2018-05-16T01:35:50.390Z,15.00
2018-05-16T01:38:17.965Z,15.00
2018-05-16T01:40:45.495Z,15.10
2018-05-16T01:43:13.021Z,15.10
2018-05-16T01:45:40.555Z,15.20
2018-05-16T01:48:08.091Z,15.40
2018-05-16T01:50:35.670Z,15.40
2018-05-16T01:53:03.196Z,15.40
2018-05-16T01:55:30.720Z,15.20
2018-05-16T01:57:58.362Z,15.20
2018-05-16T02:00:25.898Z,15.30
2018-05-16T02:02:53.419Z,15.30
2018-05-16T02:05:20.963Z,15.40
2018-05-16T02:07:48.485Z,15.30
2018-05-16T02:10:16.040Z,15.10
2018-05-16T02:12:43.570Z,15.10
2018-05-16T02:15:11.919Z,15.10
2018-05-16T02:17:39.465Z,15.10
2018-05-16T02:20:07.011Z,15.30
2018-05-16T02:22:34.511Z,15.30
2018-05-16T02:25:02.048Z,15.20
2018-05-16T02:27:29.597Z,15.30
2018-05-16T02:29:57.130Z,15.50
2018-05-16T02:32:24.665Z,15.50
2018-05-16T02:34:52.951Z,15.10
2018-05-16T02:37:21.262Z,15.20
2018-05-16T02:39:49.541Z,15.20
2018-05-16T02:42:17.092Z,15.20
2018-05-16T02:44:44.621Z,14.90
2018-05-16T02:47:12.905Z,14.80
2018-05-16T02:49:41.221Z,14.80
2018-05-16T02:52:08.745Z,14.80
2018-05-16T02:54:36.316Z,14.90
2018-05-16T02:57:03.838Z,14.80
2018-05-16T02:59:31.374Z,14.80
2018-05-16T03:01:58.891Z,14.90
2018-05-16T03:04:26.416Z,15.10
2018-05-16T03:06:53.934Z,15.20
2018-05-16T03:09:21.503Z,15.20
2018-05-16T03:11:49.035Z,15.00
2018-05-16T03:14:16.576Z,14.90
2018-05-16T03:16:44.929Z,14.80
2018-05-16T03:19:12.466Z,14.80
2018-05-16T03:21:40.005Z,15.00
2018-05-16T03:24:07.672Z,14.80
2018-05-16T03:26:35.208Z,15.00
2018-05-16T03:29:02.755Z,15.10
2018-05-16T03:31:31.034Z,15.20
2018-05-16T03:33:59.343Z,15.30
2018-05-16T03:36:26.877Z,15.20
2018-05-16T03:38:54.408Z,15.30
2018-05-16T03:41:21.953Z,15.30
2018-05-16T03:43:49.470Z,15.20
2018-05-16T03:46:17.010Z,15.20
2018-05-16T03:48:45.316Z,15.20
2018-05-16T03:51:12.838Z,15.20
2018-05-16T03:53:40.394Z,15.10
2018-05-16T03:56:07.923Z,15.20
2018-05-16T03:58:47.476Z,15.20
2018-05-16T04:01:26.699Z,15.30
2018-05-16T04:04:05.996Z,15.30
2018-05-16T04:06:33.520Z,15.20
2018-05-16T04:09:01.025Z,15.00
2018-05-16T04:11:30.890Z,15.10
2018-05-16T04:13:58.422Z,15.20
2018-05-16T04:16:25.971Z,15.30
2018-05-16T04:18:53.578Z,15.40
2018-05-16T04:21:21.115Z,15.60
2018-05-16T04:23:48.681Z,15.60
2018-05-16T04:26:16.215Z,15.70
2018-05-16T04:28:43.793Z,15.60
2018-05-16T04:31:11.301Z,15.60
2018-05-16T04:33:38.844Z,15.70
2018-05-16T04:36:07.143Z,15.80
2018-05-16T04:38:34.686Z,15.80
2018-05-16T04:41:02.221Z,15.90
2018-05-16T04:43:29.860Z,15.90
2018-05-16T04:45:57.386Z,16.00
2018-05-16T04:48:24.916Z,16.10
2018-05-16T04:50:52.458Z,16.10
2018-05-16T04:53:19.990Z,16.10
2018-05-16T04:55:47.533Z,16.30
2018-05-16T04:58:15.077Z,16.50
2018-05-16T05:00:42.645Z,16.50
2018-05-16T05:03:10.171Z,16.20
2018-05-16T05:05:37.707Z,16.10
2018-05-16T05:08:05.241Z,16.20
2018-05-16T05:10:36.703Z,15.90
2018-05-16T05:13:04.263Z,16.10
2018-05-16T05:15:31.795Z,16.00
2018-05-16T05:17:59.328Z,16.10
2018-05-16T05:20:26.883Z,16.30
2018-05-16T05:22:54.411Z,16.30
2018-05-16T05:25:21.934Z,16.30
2018-05-16T05:27:49.486Z,16.30
2018-05-16T05:30:17.113Z,16.30
2018-05-16T05:32:44.635Z,16.30
2018-05-16T05:35:12.220Z,16.10
2018-05-16T05:37:39.800Z,16.10
2018-05-16T05:40:07.786Z,16.10
2018-05-16T05:42:36.077Z,15.80
2018-05-16T05:45:04.381Z,16.00
2018-05-16T05:47:31.942Z,16.00
2018-05-16T05:49:59.480Z,16.20
2018-05-16T05:52:27.027Z,16.30
2018-05-16T05:54:55.317Z,16.50
2018-05-16T05:57:22.912Z,16.50
2018-05-16T05:59:50.464Z,16.50
2018-05-16T06:02:17.979Z,16.50
2018-05-16T06:04:46.311Z,16.50
2018-05-16T06:07:13.880Z,16.50
2018-05-16T06:09:41.391Z,16.60
2018-05-16T06:12:09.759Z,16.80
2018-05-16T06:14:37.313Z,16.80
2018-05-16T06:17:05.612Z,16.60
2018-05-16T06:19:33.926Z,16.30
2018-05-16T06:22:01.474Z,16.30
2018-05-16T06:24:29.093Z,16.20
2018-05-16T06:26:57.486Z,16.20
2018-05-16T06:29:25.016Z,16.10
2018-05-16T06:31:52.534Z,16.10
2018-05-16T06:34:20.087Z,16.10
2018-05-16T06:36:47.633Z,16.10
2018-05-16T06:39:15.225Z,16.10
2018-05-16T06:41:42.718Z,16.30
2018-05-16T06:44:10.294Z,16.40
2018-05-16T06:46:38.580Z,16.60
2018-05-16T06:49:06.887Z,16.70
2018-05-16T06:51:34.412Z,16.70
2018-05-16T06:54:02.743Z,17.00
2018-05-16T06:56:30.397Z,17.00
2018-05-16T06:58:57.946Z,17.20
2018-05-16T07:01:25.460Z,17.40
2018-05-16T07:03:52.988Z,17.50
2018-05-16T07:06:20.612Z,17.60
2018-05-16T07:08:48.130Z,17.80
2018-05-16T07:11:15.832Z,17.80
2018-05-16T07:13:43.427Z,17.80
2018-05-16T07:16:11.744Z,18.00
2018-05-16T07:18:39.260Z,18.00
2018-05-16T07:21:06.769Z,18.00
2018-05-16T07:23:34.349Z,17.90
2018-05-16T07:26:01.869Z,18.10
2018-05-16T07:28:29.591Z,18.10
2018-05-16T07:30:57.127Z,18.50
2018-05-16T07:33:24.726Z,18.80
2018-05-16T07:35:52.226Z,19.00
2018-05-16T07:38:19.783Z,19.20
2018-05-16T07:40:47.313Z,19.30
2018-05-16T07:43:14.861Z,19.40
2018-05-16T07:45:42.384Z,19.50
2018-05-16T07:48:09.920Z,19.50
2018-05-16T07:50:37.444Z,19.40
2018-05-16T07:53:05.026Z,19.40
2018-05-16T07:55:32.545Z,19.40
2018-05-16T07:58:00.081Z,19.10
2018-05-16T08:00:27.626Z,19.30
2018-05-16T08:02:55.159Z,19.40
2018-05-16T08:05:22.686Z,19.70
2018-05-16T08:07:50.238Z,20.00
2018-05-16T08:10:17.780Z,20.40
2018-05-16T08:12:45.335Z,20.00
2018-05-16T08:15:13.615Z,20.30
2018-05-16T08:17:41.923Z,20.60
2018-05-16T08:20:09.434Z,20.60
2018-05-16T08:22:36.978Z,20.40
2018-05-16T08:25:04.514Z,20.40
2018-05-16T08:27:32.074Z,20.50
2018-05-16T08:29:59.624Z,20.70
2018-05-16T08:32:27.156Z,20.60
2018-05-16T08:34:54.712Z,20.40
2018-05-16T08:37:22.283Z,20.40
2018-05-16T08:39:49.798Z,20.40
2018-05-16T08:42:17.319Z,20.80
2018-05-16T08:44:44.874Z,21.00
2018-05-16T08:47:12.457Z,21.20
2018-05-16T08:49:40.045Z,21.40
2018-05-16T08:52:07.591Z,21.10
2018-05-16T08:54:35.135Z,21.00
2018-05-16T08:57:02.666Z,21.20
2018-05-16T08:59:30.191Z,21.30
2018-05-16T09:01:57.731Z,21.10
2018-05-16T09:04:25.338Z,21.30
2018-05-16T09:06:52.957Z,21.40
2018-05-16T09:09:20.489Z,21.50
2018-05-16T09:11:48.094Z,21.70
2018-05-16T09:14:15.642Z,21.80
2018-05-16T09:16:43.182Z,21.80
2018-05-16T09:19:11.691Z,21.80
2018-05-16T09:21:39.227Z,21.60
2018-05-16T09:24:06.763Z,21.40
2018-05-16T09:26:34.413Z,21.30
2018-05-16T09:29:01.944Z,21.40
2018-05-16T09:31:29.466Z,21.50
2018-05-16T09:33:57.801Z,21.80
2018-05-16T09:36:26.105Z,22.20
2018-05-16T09:38:53.632Z,22.20
2018-05-16T09:41:22.148Z,21.80
2018-05-16T09:43:49.747Z,21.90
2018-05-16T09:46:17.267Z,22.10
2018-05-16T09:48:44.835Z,22.30
2018-05-16T09:51:12.347Z,22.40
2018-05-16T09:53:39.913Z,22.50
2018-05-16T09:56:08.248Z,22.30
2018-05-16T09:58:35.761Z,22.30
2018-05-16T10:01:03.271Z,22.60
2018-05-16T10:03:30.801Z,22.80
2018-05-16T10:05:58.331Z,22.80
2018-05-16T10:08:25.831Z,22.70
2018-05-16T10:10:53.358Z,22.50
2018-05-16T10:13:21.722Z,22.70
2018-05-16T10:15:51.009Z,23.30
2018-05-16T10:18:18.602Z,23.20
2018-05-16T10:20:46.874Z,23.10
2018-05-16T10:23:15.169Z,23.40
2018-05-16T10:25:42.688Z,23.30
2018-05-16T10:28:10.200Z,23.40
2018-05-16T10:30:37.730Z,24.00
2018-05-16T10:33:06.029Z,25.00
2018-05-16T10:35:33.544Z,25.00
2018-05-16T10:38:01.062Z,26.70
2018-05-16T10:40:28.610Z,28.20
2018-05-16T10:42:56.166Z,29.20
2018-05-16T10:45:23.775Z,29.10
2018-05-16T10:47:51.358Z,29.10
2018-05-16T10:50:19.672Z,28.60
2018-05-16T10:52:47.274Z,28.60
2018-05-16T10:55:14.811Z,28.90
2018-05-16T10:57:42.333Z,28.90
2018-05-16T11:00:09.898Z,28.80
2018-05-16T11:02:37.452Z,28.10
2018-05-16T11:05:04.979Z,27.00
2018-05-16T11:07:32.525Z,26.60
2018-05-16T11:10:00.066Z,26.60
2018-05-16T11:12:27.633Z,26.30
2018-05-16T11:14:55.171Z,26.50
2018-05-16T11:17:22.701Z,27.70
2018-05-16T11:19:51.020Z,29.10
2018-05-16T11:22:18.591Z,29.10
2018-05-16T11:24:46.127Z,27.90
2018-05-16T11:27:13.662Z,28.60
2018-05-16T11:29:41.230Z,30.00
2018-05-16T11:32:08.782Z,30.90
2018-05-16T11:34:36.382Z,31.30
2018-05-16T11:37:03.919Z,32.00
2018-05-16T11:39:31.512Z,31.90
2018-05-16T11:41:59.131Z,31.70
2018-05-16T11:44:26.676Z,32.30
2018-05-16T11:46:54.344Z,32.90
2018-05-16T11:49:22.676Z,34.40
2018-05-16T11:51:50.214Z,34.30
2018-05-16T11:54:17.747Z,34.90
2018-05-16T11:56:45.366Z,35.10
2018-05-16T11:59:12.967Z,33.90
2018-05-16T12:01:40.457Z,32.60
2018-05-16T12:04:08.066Z,30.70
2018-05-16T12:06:35.587Z,29.90
2018-05-16T12:09:03.124Z,29.30
2018-05-16T12:11:30.678Z,29.50
2018-05-16T12:13:58.209Z,29.50
2018-05-16T12:16:25.754Z,29.90
2018-05-16T12:18:53.297Z,30.50
2018-05-16T12:21:20.844Z,31.30
2018-05-16T12:23:48.385Z,31.10
2018-05-16T12:26:15.992Z,30.50
2018-05-16T12:28:43.585Z,29.60
2018-05-16T12:31:11.153Z,28.70
2018-05-16T12:33:39.723Z,27.60
2018-05-16T12:36:07.283Z,27.60
2018-05-16T12:38:35.621Z,27.50
2018-05-16T12:41:03.200Z,27.50
2018-05-16T12:43:31.557Z,27.90
2018-05-16T12:45:59.066Z,28.30
2018-05-16T12:48:26.619Z,28.90
2018-05-16T12:50:54.955Z,28.60
2018-05-16T12:53:22.514Z,28.60
2018-05-16T12:55:50.165Z,28.20
2018-05-16T12:58:17.636Z,28.20
2018-05-16T13:00:45.258Z,28.20
2018-05-16T13:03:12.841Z,28.30
2018-05-16T13:05:40.413Z,28.50
2018-05-16T13:08:08.037Z,28.40
2018-05-16T13:10:35.604Z,28.10
2018-05-16T13:13:03.211Z,27.30
2018-05-16T13:15:30.714Z,27.10
2018-05-16T13:17:59.137Z,27.40
2018-05-16T13:20:26.618Z,27.40
2018-05-16T13:22:54.404Z,27.60
2018-05-16T13:25:22.142Z,27.50
2018-05-16T13:27:49.744Z,27.00
2018-05-16T13:30:17.264Z,27.40
2018-05-16T13:32:44.803Z,27.70
2018-05-16T13:35:12.360Z,27.10
2018-05-16T13:37:39.904Z,27.30
2018-05-16T13:40:07.460Z,26.90
2018-05-16T13:42:35.042Z,27.30
2018-05-16T13:45:02.615Z,27.70
2018-05-16T13:47:30.262Z,27.60
2018-05-16T13:49:57.796Z,27.50
2018-05-16T13:52:26.084Z,27.60
2018-05-16T13:54:53.624Z,27.60
2018-05-16T13:57:21.937Z,27.60
2018-05-16T13:59:49.462Z,27.50
2018-05-16T14:02:17.918Z,27.60
2018-05-16T14:04:45.465Z,27.50
2018-05-16T14:07:13.974Z,27.50
2018-05-16T14:09:41.534Z,27.40
2018-05-16T14:12:09.120Z,27.50
2018-05-16T14:14:36.657Z,27.50
2018-05-16T14:17:04.323Z,26.90
2018-05-16T14:19:32.714Z,26.90
2018-05-16T14:22:00.347Z,26.90
2018-05-16T14:24:27.998Z,27.20
2018-05-16T14:26:55.518Z,27.30
2018-05-16T14:29:23.046Z,27.40
2018-05-16T14:31:51.337Z,27.20
2018-05-16T14:34:19.618Z,26.40
2018-05-16T14:36:47.192Z,26.40
2018-05-16T14:39:14.757Z,26.10
2018-05-16T14:41:42.311Z,25.90
2018-05-16T14:44:09.847Z,26.20
2018-05-16T14:46:38.402Z,26.10
2018-05-16T14:49:06.072Z,26.00
2018-05-16T14:51:33.628Z,25.70
2018-05-16T14:54:01.199Z,25.60
2018-05-16T14:56:28.774Z,25.30
2018-05-16T14:58:57.086Z,24.90
2018-05-16T15:01:24.636Z,24.90
2018-05-16T15:03:52.221Z,24.80
2018-05-16T15:06:19.772Z,25.20
2018-05-16T15:08:47.298Z,25.60
2018-05-16T15:11:15.637Z,24.70
2018-05-16T15:13:43.235Z,24.70
2018-05-16T15:16:11.693Z,25.70
2018-05-16T15:18:39.322Z,25.70
2018-05-16T15:21:06.938Z,26.10
2018-05-16T15:23:34.464Z,25.70
2018-05-16T15:26:02.019Z,25.60
2018-05-16T15:28:29.559Z,25.20
2018-05-16T15:30:57.089Z,24.70
2018-05-16T15:33:25.396Z,25.20
2018-05-16T15:35:52.954Z,25.10
2018-05-16T15:38:20.601Z,25.00
2018-05-16T15:40:48.045Z,24.70
2018-05-16T15:43:16.340Z,25.30
2018-05-16T15:45:43.908Z,25.30
2018-05-16T15:48:11.483Z,25.20
2018-05-16T15:50:39.061Z,25.50
2018-05-16T15:53:06.608Z,25.80
2018-05-16T15:55:34.197Z,25.50
2018-05-16T15:58:01.757Z,25.40
2018-05-16T16:00:29.274Z,25.30
2018-05-16T16:02:56.821Z,25.00
2018-05-16T16:05:24.338Z,24.70
2018-05-16T16:07:51.966Z,24.80
2018-05-16T16:10:19.509Z,24.60
2018-05-16T16:12:47.371Z,24.50
2018-05-16T16:15:14.947Z,24.40
2018-05-16T16:17:42.468Z,24.50
2018-05-16T16:20:10.769Z,24.50
2018-05-16T16:22:38.345Z,24.50
2018-05-16T16:25:06.387Z,24.60
2018-05-16T16:27:34.006Z,24.80
2018-05-16T16:30:01.603Z,25.00
2018-05-16T16:32:30.019Z,25.00
2018-05-16T16:34:57.609Z,25.00
2018-05-16T16:37:25.244Z,25.20
2018-05-16T16:39:52.787Z,24.90
2018-05-16T16:42:20.325Z,25.30
2018-05-16T16:44:47.982Z,25.80
2018-05-16T16:47:15.777Z,26.20
2018-05-16T16:49:43.303Z,26.40
2018-05-16T16:52:11.741Z,26.60
2018-05-16T16:54:39.305Z,26.50
2018-05-16T16:57:06.935Z,26.30
2018-05-16T16:59:35.428Z,26.00
2018-05-16T17:02:03.045Z,26.00
2018-05-16T17:04:30.655Z,25.60
2018-05-16T17:06:58.146Z,25.10
2018-05-16T17:09:25.694Z,25.00
2018-05-16T17:11:53.235Z,24.40
2018-05-16T17:14:20.805Z,24.30
2018-05-16T17:16:48.435Z,24.50
2018-05-16T17:19:22.902Z,23.60
2018-05-16T17:21:50.464Z,23.40
2018-05-16T17:24:18.221Z,23.60
2018-05-16T17:26:45.766Z,23.60
2018-05-16T17:29:13.320Z,23.70
2018-05-16T17:31:40.829Z,23.90
2018-05-16T17:34:08.351Z,23.80
2018-05-16T17:36:35.854Z,23.90
2018-05-16T17:39:04.768Z,23.70
2018-05-16T17:41:32.664Z,23.70
2018-05-16T17:44:00.365Z,23.60
2018-05-16T17:46:27.970Z,23.50
2018-05-16T17:48:55.523Z,23.60
2018-05-16T17:51:27.933Z,23.60
2018-05-16T17:54:06.350Z,23.10
2018-05-16T17:56:34.100Z,22.90
2018-05-16T17:59:01.642Z,23.10
2018-05-16T18:01:29.217Z,23.00
2018-05-16T18:03:56.838Z,23.00
2018-05-16T18:06:24.375Z,23.00
2018-05-16T18:08:51.925Z,23.20
2018-05-16T18:11:19.442Z,23.00
2018-05-16T18:13:59.620Z,22.90
2018-05-16T18:16:39.052Z,22.90
2018-05-16T18:19:06.594Z,22.70
2018-05-16T18:21:34.115Z,22.70
2018-05-16T18:24:01.684Z,22.80
2018-05-16T18:26:29.228Z,22.80
2018-05-16T18:28:56.806Z,22.80
2018-05-16T18:31:24.473Z,22.80
2018-05-16T18:33:52.098Z,22.80
2018-05-16T18:36:19.641Z,22.80
2018-05-16T18:38:47.248Z,22.60
2018-05-16T18:41:14.864Z,22.60
2018-05-16T18:43:42.418Z,22.50
2018-05-16T18:46:10.047Z,22.40
2018-05-16T18:48:37.764Z,22.40
2018-05-16T18:51:05.335Z,22.40
2018-05-16T18:53:32.932Z,22.40
2018-05-16T18:56:01.418Z,22.50
2018-05-16T18:58:28.839Z,22.40
2018-05-16T19:00:56.387Z,22.30
2018-05-16T19:03:23.946Z,22.30
2018-05-16T19:05:51.532Z,22.30
2018-05-16T19:08:19.114Z,22.30
2018-05-16T19:10:47.473Z,22.20
2018-05-16T19:13:15.050Z,22.20
2018-05-16T19:15:43.382Z,22.20
2018-05-16T19:18:10.946Z,22.20
2018-05-16T19:20:38.475Z,22.30
2018-05-16T19:23:06.124Z,22.30
2018-05-16T19:25:34.506Z,22.10
2018-05-16T19:28:02.194Z,22.00
2018-05-16T19:30:29.723Z,22.00
2018-05-16T19:32:58.049Z,21.80
2018-05-16T19:35:25.667Z,21.80
2018-05-16T19:37:53.303Z,21.80
2018-05-16T19:40:20.901Z,21.90
2018-05-16T19:42:48.509Z,21.90
2018-05-16T19:45:16.076Z,21.80
2018-05-16T19:47:43.655Z,21.80
2018-05-16T19:50:11.222Z,21.70
2018-05-16T19:52:39.557Z,21.70
2018-05-16T19:55:07.104Z,21.60
2018-05-16T19:57:34.725Z,21.70
2018-05-16T20:00:02.503Z,21.60
2018-05-16T20:02:30.128Z,21.60
2018-05-16T20:04:57.693Z,21.60
2018-05-16T20:07:25.653Z,21.50
2018-05-16T20:09:53.347Z,21.50
2018-05-16T20:12:21.655Z,21.40
2018-05-16T20:14:49.270Z,21.40
2018-05-16T20:17:16.858Z,21.30
2018-05-16T20:19:44.432Z,21.40
2018-05-16T20:22:12.020Z,21.40
2018-05-16T20:24:39.632Z,21.40
2018-05-16T20:27:07.293Z,21.40
2018-05-16T20:29:34.917Z,21.40
2018-05-16T20:32:02.604Z,21.40
2018-05-16T20:34:30.261Z,21.40
2018-05-16T20:36:57.893Z,21.30
2018-05-16T20:39:25.544Z,21.20
2018-05-16T20:41:53.116Z,21.20
2018-05-16T20:44:20.703Z,21.20
2018-05-16T20:46:48.293Z,21.20
2018-05-16T20:49:19.647Z,21.10
2018-05-16T20:51:47.192Z,21.20
2018-05-16T20:54:15.512Z,21.00
2018-05-16T20:56:43.061Z,21.00
2018-05-16T20:59:10.674Z,21.00
2018-05-16T21:01:38.279Z,21.00
2018-05-16T21:04:05.938Z,21.00
2018-05-16T21:06:33.479Z,20.90
2018-05-16T21:09:01.896Z,20.80
2018-05-16T21:11:29.456Z,20.80
2018-05-16T21:13:57.016Z,20.80
2018-05-16T21:16:25.416Z,20.80
2018-05-16T21:18:52.981Z,20.70
2018-05-16T21:21:20.591Z,20.70
2018-05-16T21:23:48.166Z,20.70
2018-05-16T21:26:15.715Z,20.60
2018-05-16T21:28:43.346Z,20.60
2018-05-16T21:31:10.873Z,20.70
2018-05-16T21:33:38.400Z,20.70
2018-05-16T21:36:05.945Z,20.70
2018-05-16T21:38:33.642Z,20.70
2018-05-16T21:41:01.273Z,20.60
2018-05-16T21:43:29.581Z,20.70
2018-05-16T21:45:57.151Z,20.60
2018-05-16T21:48:24.693Z,20.50
2018-05-16T21:50:52.389Z,20.50
2018-05-16T21:53:19.888Z,20.40
2018-05-16T21:55:48.238Z,20.40
2018-05-16T21:58:16.703Z,20.40
2018-05-16T22:00:44.252Z,20.40
2018-05-16T22:03:12.724Z,20.40
2018-05-16T22:05:40.316Z,20.30
2018-05-16T22:08:07.897Z,20.20
2018-05-16T22:10:35.525Z,20.20
2018-05-16T22:13:03.041Z,20.10
2018-05-16T22:15:31.353Z,20.20
2018-05-16T22:17:58.903Z,20.20
2018-05-16T22:20:27.307Z,20.20
2018-05-16T22:22:54.952Z,20.10
2018-05-16T22:25:22.553Z,20.10
2018-05-16T22:27:50.096Z,20.10
2018-05-16T22:30:17.157Z,20.10
2018-05-16T22:32:50.350Z,20.00
2018-05-16T22:35:23.488Z,20.00
2018-05-16T22:37:56.646Z,19.90
2018-05-16T22:40:29.797Z,19.90
2018-05-16T22:42:56.826Z,19.90
2018-05-16T22:45:35.037Z,19.80
2018-05-16T22:48:02.807Z,19.70
2018-05-16T22:50:30.333Z,19.70
2018-05-16T22:52:58.611Z,19.70
2018-05-16T22:55:26.233Z,19.70
2018-05-16T22:57:53.808Z,19.60
2018-05-16T23:00:22.247Z,19.60
2018-05-16T23:02:49.766Z,19.60
2018-05-16T23:05:17.308Z,19.50
2018-05-16T23:07:44.912Z,19.20
2018-05-16T23:10:12.497Z,19.10
2018-05-16T23:12:40.030Z,18.90
2018-05-16T23:15:07.605Z,18.80
2018-05-16T23:17:35.143Z,18.70
2018-05-16T23:20:02.724Z,18.70
2018-05-16T23:22:30.857Z,18.70
2018-05-16T23:24:58.392Z,18.80
2018-05-16T23:27:25.942Z,18.90
2018-05-16T23:29:53.884Z,18.90
2018-05-16T23:32:21.511Z,19.00
2018-05-16T23:34:48.985Z,19.00
2018-05-16T23:37:17.319Z,19.10
2018-05-16T23:39:46.045Z,19.10
2018-05-16T23:42:14.321Z,19.10
2018-05-16T23:44:42.617Z,19.10
2018-05-16T23:47:10.162Z,19.10
2018-05-16T23:49:38.229Z,19.00
2018-05-16T23:52:05.873Z,19.00
2018-05-16T23:54:33.388Z,18.90
2018-05-16T23:57:00.975Z,18.90
2018-05-16T23:59:28.537Z,18.80
